Time;durP1;ratioP1;P1;durP2;ratioP2;P2;SDS_P1;SDS_P2;PMS_P1;PMS_P2;Temp;Humidity;BMP_temperature;BMP_pressure;BME280_temperature;BME280_humidity;BME280_pressure;Samples;Min_cycle;Max_cycle;Signal;HPM_P1;HPM_P2
2023/05/29 00:01:28;;;;;;;8.20;2.20;;;12.10;99.90;;;;;;5102409;28;20217;-54
2023/05/29 00:03:55;;;;;;;12.40;2.20;;;12.20;99.90;;;;;;5105103;28;20274;-51
2023/05/29 00:06:22;;;;;;;8.77;1.80;;;12.10;99.90;;;;;;5097135;28;20225;-54
2023/05/29 00:08:49;;;;;;;11.27;2.37;;;12.10;99.90;;;;;;5091840;28;20197;-53
2023/05/29 00:11:16;;;;;;;6.00;2.10;;;12.10;99.90;;;;;;5102219;28;20242;-53
2023/05/29 00:13:44;;;;;;;7.80;2.10;;;12.10;99.90;;;;;;5102654;28;20256;-52
2023/05/29 00:16:11;;;;;;;10.40;2.07;;;12.10;99.90;;;;;;5084918;28;20626;-53
2023/05/29 00:18:45;;;;;;;6.23;2.20;;;12.00;99.90;;;;;;5100900;28;20189;-48
2023/05/29 00:21:12;;;;;;;8.87;2.47;;;11.90;99.90;;;;;;5099782;28;20796;-51
2023/05/29 00:23:39;;;;;;;7.10;2.40;;;11.90;99.90;;;;;;5082919;28;20204;-51
2023/05/29 00:26:06;;;;;;;7.00;2.30;;;11.80;99.90;;;;;;5099733;28;20209;-53
2023/05/29 00:28:36;;;;;;;7.40;1.73;;;11.70;99.90;;;;;;5093496;28;20267;-50
2023/05/29 00:31:03;;;;;;;8.00;2.50;;;11.60;99.90;;;;;;5084657;28;20212;-49
2023/05/29 00:33:30;;;;;;;9.50;2.10;;;11.50;99.90;;;;;;5095400;28;20193;-50
2023/05/29 00:35:59;;;;;;;10.00;2.13;;;11.40;99.90;;;;;;5095004;28;20265;-50
2023/05/29 00:38:26;;;;;;;9.77;2.17;;;11.30;99.90;;;;;;5089312;28;20284;-53
2023/05/29 00:40:53;;;;;;;9.70;1.97;;;11.30;99.90;;;;;;5103112;28;20263;-49
2023/05/29 00:43:20;;;;;;;7.97;2.10;;;11.20;99.90;;;;;;5100927;28;20235;-55
2023/05/29 00:45:47;;;;;;;8.57;1.90;;;11.10;99.90;;;;;;5103033;28;20215;-52
2023/05/29 00:48:14;;;;;;;7.83;1.93;;;11.10;99.90;;;;;;5077365;28;20259;-55
2023/05/29 00:50:41;;;;;;;7.17;1.83;;;11.10;99.90;;;;;;5090783;28;20190;-50
2023/05/29 00:53:11;;;;;;;9.37;2.30;;;11.00;99.90;;;;;;5101161;28;20193;-54
2023/05/29 00:55:38;;;;;;;9.90;2.20;;;11.00;99.90;;;;;;5092210;27;20224;-50
2023/05/29 00:58:06;;;;;;;16.00;3.23;;;10.90;99.90;;;;;;5101961;28;20547;-51
2023/05/29 01:00:35;;;;;;;9.07;2.17;;;10.80;99.90;;;;;;5100495;28;20981;-49
2023/05/29 01:03:05;;;;;;;10.07;2.37;;;10.80;99.90;;;;;;5076503;28;20212;-53
2023/05/29 01:05:34;;;;;;;8.87;2.23;;;10.80;99.90;;;;;;5094110;28;20209;-50
2023/05/29 01:08:01;;;;;;;9.70;2.03;;;10.70;99.90;;;;;;5093000;28;20201;-52
2023/05/29 01:10:31;;;;;;;7.30;1.90;;;10.70;99.90;;;;;;5090540;27;20922;-53
2023/05/29 01:13:04;;;;;;;6.97;2.10;;;10.60;99.90;;;;;;5102811;28;20210;-49
2023/05/29 01:15:43;;;;;;;8.47;1.97;;;10.60;99.90;;;;;;5094423;28;20205;-51
2023/05/29 01:18:23;;;;;;;7.63;2.53;;;10.60;99.90;;;;;;5073864;28;20201;-54
2023/05/29 01:20:58;;;;;;;6.97;2.13;;;10.60;99.90;;;;;;5095894;28;20301;-53
2023/05/29 01:23:53;;;;;;;10.87;1.83;;;10.60;99.90;;;;;;5100149;28;20658;-55
2023/05/29 01:26:42;;;;;;;9.00;2.30;;;10.50;99.90;;;;;;5087584;28;20221;-55
2023/05/29 01:29:13;;;;;;;9.10;1.67;;;10.50;99.90;;;;;;5100721;28;20682;-53
2023/05/29 01:31:42;;;;;;;12.73;2.97;;;10.50;99.90;;;;;;5091389;28;20264;-53
2023/05/29 01:34:10;;;;;;;5.77;1.87;;;10.50;99.90;;;;;;5080430;28;20558;-56
2023/05/29 01:36:37;;;;;;;12.30;2.43;;;10.40;99.90;;;;;;5099734;28;20185;-51
2023/05/29 01:39:05;;;;;;;11.93;2.00;;;10.40;99.90;;;;;;5101170;28;20234;-49
2023/05/29 01:41:35;;;;;;;6.63;2.47;;;10.40;99.90;;;;;;5083271;28;20872;-51
2023/05/29 01:44:04;;;;;;;9.80;1.80;;;10.40;99.90;;;;;;5097167;28;20189;-53
2023/05/29 01:46:31;;;;;;;10.63;3.03;;;10.40;99.90;;;;;;5092116;28;20208;-51
2023/05/29 01:48:58;;;;;;;11.90;1.93;;;10.30;99.90;;;;;;5101299;28;20262;-50
2023/05/29 01:51:25;;;;;;;8.00;2.20;;;10.40;99.90;;;;;;5075395;28;20208;-51
2023/05/29 01:53:52;;;;;;;14.03;2.70;;;10.30;99.90;;;;;;5103251;28;20197;-49
2023/05/29 01:56:21;;;;;;;9.17;2.33;;;10.20;99.90;;;;;;5089532;28;20236;-52
2023/05/29 01:58:51;;;;;;;12.07;3.50;;;10.20;99.90;;;;;;5092269;28;20200;-55
2023/05/29 02:01:18;;;;;;;9.40;2.03;;;10.20;99.90;;;;;;5101112;28;20209;-54
2023/05/29 02:03:45;;;;;;;6.43;2.23;;;10.10;99.90;;;;;;5106164;28;20189;-52
2023/05/29 02:06:12;;;;;;;10.93;2.13;;;10.00;99.90;;;;;;5084413;28;20217;-53
2023/05/29 02:08:39;;;;;;;8.07;2.50;;;10.00;99.90;;;;;;5102895;28;20284;-50
2023/05/29 02:11:06;;;;;;;12.13;2.83;;;9.90;99.90;;;;;;5103042;28;20212;-51
2023/05/29 02:13:33;;;;;;;8.93;2.77;;;9.90;99.90;;;;;;5085485;27;20193;-52
2023/05/29 02:16:02;;;;;;;13.03;2.07;;;9.80;99.90;;;;;;5104074;28;20217;-49
2023/05/29 02:18:28;;;;;;;8.83;1.77;;;9.70;99.90;;;;;;5096900;28;20189;-54
2023/05/29 02:20:55;;;;;;;8.73;1.97;;;9.70;99.90;;;;;;5085978;28;20220;-53
2023/05/29 02:23:22;;;;;;;9.80;2.33;;;9.80;99.90;;;;;;5102571;28;20702;-51
2023/05/29 02:25:51;;;;;;;6.70;2.53;;;9.80;99.90;;;;;;5100423;28;20232;-49
2023/05/29 02:28:18;;;;;;;9.17;2.60;;;9.70;99.90;;;;;;5089019;28;20204;-55
2023/05/29 02:30:45;;;;;;;8.40;2.00;;;9.60;99.90;;;;;;5104242;28;20912;-51
2023/05/29 02:33:13;;;;;;;11.40;2.00;;;9.60;99.90;;;;;;5105521;28;20193;-52
2023/05/29 02:35:40;;;;;;;9.53;2.40;;;9.60;99.90;;;;;;5103998;28;20213;-53
2023/05/29 02:38:07;;;;;;;11.23;2.57;;;9.60;99.90;;;;;;5085589;28;20212;-49
2023/05/29 02:40:34;;;;;;;6.93;2.20;;;9.50;99.90;;;;;;5094456;28;20190;-49
2023/05/29 02:43:01;;;;;;;8.87;2.00;;;9.50;99.90;;;;;;5094912;28;20220;-52
2023/05/29 02:45:28;;;;;;;11.63;2.50;;;9.50;99.90;;;;;;5097300;28;20213;-53
2023/05/29 02:47:55;;;;;;;10.73;2.10;;;9.50;99.90;;;;;;5104150;28;20193;-50
2023/05/29 02:50:23;;;;;;;8.97;1.90;;;9.50;99.90;;;;;;5092259;28;20553;-53
2023/05/29 02:52:50;;;;;;;11.67;2.77;;;9.50;99.90;;;;;;5081005;28;20679;-51
2023/05/29 02:55:19;;;;;;;10.97;2.30;;;11.00;99.90;;;;;;5095743;28;20213;-54
2023/05/29 02:57:48;;;;;;;14.77;2.67;;;9.50;99.90;;;;;;5103198;28;20882;-48
2023/05/29 03:00:16;;;;;;;10.67;2.60;;;9.50;99.90;;;;;;5092986;28;20284;-53
2023/05/29 03:02:43;;;;;;;6.70;1.83;;;9.50;99.90;;;;;;5103155;28;20232;-50
2023/05/29 03:05:12;;;;;;;9.77;2.50;;;9.40;99.90;;;;;;5094094;28;20251;-51
2023/05/29 03:07:40;;;;;;;12.80;3.03;;;9.40;99.90;;;;;;5074346;28;20213;-50
2023/05/29 03:10:07;;;;;;;11.67;2.20;;;9.40;99.90;;;;;;5090638;28;20636;-50
2023/05/29 03:12:34;;;;;;;11.17;2.00;;;9.30;99.90;;;;;;5084420;28;20216;-50
2023/05/29 03:15:01;;;;;;;8.20;2.13;;;9.30;99.90;;;;;;5094154;28;20307;-54
2023/05/29 03:17:29;;;;;;;11.53;2.23;;;9.20;99.90;;;;;;5102402;28;20183;-51
2023/05/29 03:19:58;;;;;;;14.23;2.53;;;9.20;99.90;;;;;;5091013;28;20246;-52
2023/05/29 03:22:25;;;;;;;9.17;2.27;;;9.20;99.90;;;;;;5097226;28;20285;-54
2023/05/29 03:24:53;;;;;;;10.57;2.10;;;9.20;99.90;;;;;;5079075;28;20274;-53
2023/05/29 03:27:20;;;;;;;12.20;2.60;;;9.10;99.90;;;;;;5103437;28;20193;-51
2023/05/29 03:29:57;;;;;;;8.77;1.90;;;9.00;99.90;;;;;;5094916;28;20213;-53
2023/05/29 03:32:25;;;;;;;9.30;2.23;;;9.00;99.90;;;;;;5088427;28;20246;-53
2023/05/29 03:34:51;;;;;;;15.40;2.80;;;8.90;99.90;;;;;;5097738;28;20722;-55
2023/05/29 03:37:18;;;;;;;10.00;2.17;;;8.90;99.90;;;;;;5081840;28;20200;-49
2023/05/29 03:39:47;;;;;;;9.50;2.27;;;8.90;99.90;;;;;;5081400;28;20236;-54
2023/05/29 03:42:15;;;;;;;7.07;2.03;;;9.00;99.90;;;;;;5101433;28;20202;-56
2023/05/29 03:44:43;;;;;;;8.17;2.37;;;9.00;99.90;;;;;;5105483;28;20251;-51
2023/05/29 03:47:11;;;;;;;14.83;2.40;;;9.00;99.90;;;;;;5092547;28;20906;-52
2023/05/29 03:49:38;;;;;;;11.20;2.67;;;9.00;99.90;;;;;;5096215;28;20231;-52
2023/05/29 03:52:06;;;;;;;12.03;1.97;;;9.00;99.90;;;;;;5087738;28;20285;-51
2023/05/29 03:54:34;;;;;;;9.10;2.17;;;9.10;99.90;;;;;;5104188;28;20591;-51
2023/05/29 03:57:03;;;;;;;11.60;2.27;;;9.00;99.90;;;;;;5078609;28;20202;-51
2023/05/29 03:59:31;;;;;;;13.30;2.10;;;9.10;99.90;;;;;;5103939;28;20189;-51
2023/05/29 04:01:58;;;;;;;9.13;2.83;;;9.10;99.90;;;;;;5080191;28;20213;-51
2023/05/29 04:04:26;;;;;;;12.20;2.77;;;9.10;99.90;;;;;;5094564;28;20196;-62
2023/05/29 04:06:54;;;;;;;7.87;2.40;;;9.10;99.90;;;;;;5097370;28;20197;-54
2023/05/29 04:09:21;;;;;;;8.57;2.03;;;9.10;99.90;;;;;;5093702;28;20193;-54
2023/05/29 04:11:51;;;;;;;8.87;2.43;;;9.10;99.90;;;;;;5081351;28;20205;-53
2023/05/29 04:14:18;;;;;;;10.53;2.37;;;9.20;99.90;;;;;;5102118;28;20272;-56
2023/05/29 04:16:47;;;;;;;16.43;2.90;;;9.20;99.90;;;;;;5086945;28;20354;-54
2023/05/29 04:19:13;;;;;;;14.30;2.60;;;9.20;99.90;;;;;;5088911;28;20201;-54
2023/05/29 04:21:41;;;;;;;12.93;2.70;;;9.20;99.90;;;;;;5083276;28;20229;-55
2023/05/29 04:24:07;;;;;;;9.93;2.60;;;9.20;99.90;;;;;;5092760;28;20284;-54
2023/05/29 04:26:35;;;;;;;14.87;2.57;;;9.30;99.90;;;;;;5079121;28;20213;-49
2023/05/29 04:29:03;;;;;;;8.87;2.43;;;9.30;99.90;;;;;;5102202;28;20280;-51
2023/05/29 04:31:32;;;;;;;6.80;2.13;;;9.30;99.90;;;;;;5091824;28;20907;-51
2023/05/29 04:34:04;;;;;;;11.10;2.03;;;9.30;99.90;;;;;;5087735;28;20198;-49
2023/05/29 04:36:32;;;;;;;9.30;2.23;;;9.20;99.90;;;;;;5083653;28;20201;-49
2023/05/29 04:39:07;;;;;;;11.33;2.63;;;9.30;99.90;;;;;;5091355;28;20201;-47
2023/05/29 04:41:35;;;;;;;14.80;3.77;;;9.20;99.90;;;;;;5078339;28;20239;-49
2023/05/29 04:44:03;;;;;;;14.57;3.23;;;9.20;99.90;;;;;;5098151;28;20213;-48
2023/05/29 04:46:40;;;;;;;11.60;2.27;;;9.20;99.90;;;;;;5091464;28;20193;-47
2023/05/29 04:49:08;;;;;;;7.47;2.30;;;9.20;99.90;;;;;;5096457;28;20262;-50
2023/05/29 04:51:36;;;;;;;11.90;2.90;;;9.20;99.90;;;;;;5099409;28;20411;-51
2023/05/29 04:54:03;;;;;;;9.13;2.23;;;9.30;99.90;;;;;;5086715;28;20628;-48
2023/05/29 04:56:30;;;;;;;12.60;3.17;;;9.20;99.90;;;;;;5099911;28;20229;-53
2023/05/29 04:58:58;;;;;;;7.80;2.40;;;9.20;99.90;;;;;;5074372;28;20224;-50
2023/05/29 05:01:48;;;;;;;10.63;2.43;;;9.30;99.90;;;;;;5099762;28;21019;-51
2023/05/29 05:04:16;;;;;;;8.57;2.50;;;9.30;99.90;;;;;;5099868;28;20585;-52
2023/05/29 05:06:44;;;;;;;13.13;2.60;;;9.30;99.90;;;;;;5096759;28;20193;-53
2023/05/29 05:09:12;;;;;;;14.53;2.83;;;9.30;99.90;;;;;;5091327;28;20571;-54
2023/05/29 05:11:39;;;;;;;10.70;2.07;;;9.30;99.90;;;;;;5088021;28;20185;-51
2023/05/29 05:14:07;;;;;;;10.27;2.47;;;9.40;99.90;;;;;;5072494;28;20197;-48
2023/05/29 05:16:34;;;;;;;12.53;2.97;;;9.40;99.90;;;;;;5098565;28;20213;-48
2023/05/29 05:19:03;;;;;;;8.13;2.33;;;9.50;99.90;;;;;;5102505;28;20185;-52
2023/05/29 05:21:35;;;;;;;13.90;3.03;;;9.50;99.90;;;;;;5083557;28;20186;-54
2023/05/29 05:24:04;;;;;;;12.77;2.40;;;9.50;99.90;;;;;;5090664;28;20618;-49
2023/05/29 05:26:32;;;;;;;12.10;2.63;;;9.60;99.90;;;;;;5072491;28;20217;-51
2023/05/29 05:28:59;;;;;;;12.23;3.43;;;9.60;99.90;;;;;;5077961;28;20220;-50
2023/05/29 05:31:29;;;;;;;13.97;3.03;;;9.60;99.90;;;;;;5098384;28;20242;-51
2023/05/29 05:33:56;;;;;;;13.57;2.90;;;9.70;99.90;;;;;;5103637;28;20561;-50
2023/05/29 05:36:24;;;;;;;12.47;3.33;;;9.70;99.90;;;;;;5078600;28;20225;-55
2023/05/29 05:38:58;;;;;;;9.27;2.50;;;9.70;99.90;;;;;;5083917;28;20185;-55
2023/05/29 05:41:26;;;;;;;13.83;2.77;;;9.80;99.90;;;;;;5072285;28;20208;-51
2023/05/29 05:43:54;;;;;;;16.47;3.30;;;9.80;99.90;;;;;;5087688;28;20263;-54
2023/05/29 05:46:54;;;;;;;12.40;2.87;;;9.90;99.90;;;;;;5084823;28;20739;-55
2023/05/29 05:49:21;;;;;;;10.13;2.93;;;9.90;99.90;;;;;;5098606;28;20182;-55
2023/05/29 05:51:47;;;;;;;13.83;3.40;;;10.00;99.90;;;;;;5085349;28;20212;-50
2023/05/29 05:54:15;;;;;;;14.57;2.60;;;10.00;99.90;;;;;;5091042;28;20838;-54
2023/05/29 05:56:42;;;;;;;10.43;2.30;;;10.00;99.90;;;;;;5076827;28;20572;-49
2023/05/29 05:59:14;;;;;;;12.30;3.13;;;10.00;99.90;;;;;;5097803;28;20269;-53
2023/05/29 06:01:42;;;;;;;12.53;3.03;;;10.00;99.90;;;;;;5081849;28;20213;-50
2023/05/29 06:04:09;;;;;;;14.30;2.83;;;10.00;99.90;;;;;;5097227;28;20196;-49
2023/05/29 06:06:37;;;;;;;15.37;3.27;;;10.10;99.90;;;;;;5099073;28;20209;-49
2023/05/29 06:09:05;;;;;;;14.30;2.63;;;10.10;99.90;;;;;;5081447;28;20250;-52
2023/05/29 06:11:33;;;;;;;9.57;2.60;;;10.20;99.90;;;;;;5088071;28;20691;-55
2023/05/29 06:14:01;;;;;;;12.73;2.70;;;10.20;99.90;;;;;;5083085;28;21364;-53
2023/05/29 06:16:29;;;;;;;17.93;2.77;;;10.20;99.90;;;;;;5078669;28;20676;-50
2023/05/29 06:18:57;;;;;;;6.63;2.37;;;10.30;99.90;;;;;;5093064;28;20250;-52
2023/05/29 06:21:25;;;;;;;14.77;2.97;;;10.30;99.90;;;;;;5089010;28;20188;-52
2023/05/29 06:23:54;;;;;;;9.13;2.73;;;10.40;99.90;;;;;;5086291;28;20703;-53
2023/05/29 06:26:21;;;;;;;15.43;3.40;;;10.50;99.90;;;;;;5091953;28;20217;-48
2023/05/29 06:28:51;;;;;;;15.03;3.00;;;10.50;99.90;;;;;;5093067;28;20284;-53
2023/05/29 06:31:20;;;;;;;16.97;2.87;;;10.60;99.90;;;;;;5100586;28;20189;-53
2023/05/29 06:33:50;;;;;;;11.43;2.80;;;10.70;99.90;;;;;;5076661;28;20218;-53
2023/05/29 06:36:17;;;;;;;10.10;2.53;;;10.70;99.90;;;;;;5081389;28;20259;-52
2023/05/29 06:38:47;;;;;;;14.13;3.47;;;10.70;99.90;;;;;;5090647;28;20299;-50
2023/05/29 06:41:15;;;;;;;12.33;2.80;;;10.80;99.90;;;;;;5096900;28;20749;-53
2023/05/29 06:43:42;;;;;;;16.97;3.60;;;10.90;99.90;;;;;;5092518;28;20220;-50
2023/05/29 06:46:11;;;;;;;11.90;2.77;;;11.00;99.90;;;;;;5086879;28;20266;-54
2023/05/29 06:48:38;;;;;;;11.93;3.20;;;11.00;99.90;;;;;;5077710;28;20306;-51
2023/05/29 06:51:08;;;;;;;11.13;2.80;;;11.00;99.90;;;;;;5091908;28;20193;-51
2023/05/29 06:53:41;;;;;;;21.63;3.50;;;11.10;99.90;;;;;;5095998;28;20223;-51
2023/05/29 06:56:10;;;;;;;12.83;2.77;;;11.10;99.90;;;;;;5095434;28;20202;-51
2023/05/29 06:58:37;;;;;;;13.00;2.53;;;11.20;99.90;;;;;;5079069;28;20208;-53
2023/05/29 07:01:04;;;;;;;11.20;3.27;;;11.20;99.90;;;;;;5095655;28;20201;-53
2023/05/29 07:03:36;;;;;;;9.67;2.70;;;11.30;99.90;;;;;;5055562;28;20229;-53
2023/05/29 07:06:06;;;;;;;15.70;3.00;;;11.40;99.90;;;;;;5096401;28;20219;-53
2023/05/29 07:08:33;;;;;;;10.07;2.43;;;11.40;99.90;;;;;;5080240;28;20213;-53
2023/05/29 07:11:00;;;;;;;16.83;2.57;;;11.40;99.90;;;;;;5097666;28;20200;-52
2023/05/29 07:13:27;;;;;;;19.90;3.80;;;11.50;99.90;;;;;;5084511;28;20194;-48
2023/05/29 07:15:55;;;;;;;10.77;2.73;;;11.50;99.90;;;;;;5082401;28;20755;-53
2023/05/29 07:18:29;;;;;;;18.93;3.20;;;11.50;99.90;;;;;;5082466;28;20759;-55
2023/05/29 07:21:01;;;;;;;11.93;3.27;;;11.50;99.90;;;;;;5081085;28;20213;-53
2023/05/29 07:23:50;;;;;;;13.80;2.50;;;11.50;99.90;;;;;;5104913;28;20277;-56
2023/05/29 07:26:38;;;;;;;12.90;2.90;;;11.50;99.90;;;;;;5100512;28;20890;-53
2023/05/29 07:29:05;;;;;;;12.43;2.73;;;11.60;99.90;;;;;;5097107;28;20961;-54
2023/05/29 07:31:33;;;;;;;11.40;2.93;;;11.60;99.90;;;;;;5081094;28;20251;-54
2023/05/29 07:34:00;;;;;;;12.63;3.07;;;11.60;99.90;;;;;;5094515;28;20232;-52
2023/05/29 07:36:32;;;;;;;12.67;2.60;;;11.70;99.90;;;;;;5081039;28;20223;-52
2023/05/29 07:39:02;;;;;;;11.87;3.07;;;11.80;99.90;;;;;;5104294;28;20280;-49
2023/05/29 07:41:29;;;;;;;11.73;3.00;;;11.90;99.90;;;;;;5082680;28;20191;-53
2023/05/29 07:43:56;;;;;;;13.43;2.90;;;12.00;99.90;;;;;;5077018;28;20233;-52
2023/05/29 07:46:24;;;;;;;6.37;2.50;;;12.10;99.90;;;;;;5059149;28;20311;-46
2023/05/29 07:48:56;;;;;;;11.30;2.37;;;12.10;99.90;;;;;;5080551;28;20593;-56
2023/05/29 07:51:24;;;;;;;9.57;2.40;;;12.20;99.90;;;;;;5082798;27;20209;-55
2023/05/29 07:53:53;;;;;;;13.93;3.20;;;12.20;99.90;;;;;;5099352;28;20221;-56
2023/05/29 07:56:21;;;;;;;12.47;3.37;;;12.30;99.90;;;;;;5087420;28;20831;-54
2023/05/29 07:58:48;;;;;;;9.40;2.63;;;12.40;99.90;;;;;;5087661;28;20305;-54
2023/05/29 08:01:15;;;;;;;11.87;2.57;;;12.30;99.90;;;;;;5080129;28;20221;-54
2023/05/29 08:03:43;;;;;;;13.07;3.10;;;12.30;99.90;;;;;;5102400;28;20304;-56
2023/05/29 08:06:24;;;;;;;11.37;2.90;;;12.40;99.90;;;;;;5086866;28;20575;-50
2023/05/29 08:08:53;;;;;;;13.83;3.00;;;12.60;99.90;;;;;;5078339;28;20216;-52
2023/05/29 08:11:23;;;;;;;12.90;2.40;;;12.70;99.90;;;;;;5074623;28;20217;-55
2023/05/29 08:13:50;;;;;;;12.37;2.70;;;12.70;99.90;;;;;;5079617;28;20190;-54
2023/05/29 08:16:17;;;;;;;9.53;2.80;;;12.80;99.90;;;;;;5092696;28;20252;-52
2023/05/29 08:18:45;;;;;;;12.67;3.00;;;12.90;99.90;;;;;;5098151;28;20736;-56
2023/05/29 08:21:12;;;;;;;9.47;2.63;;;13.10;99.90;;;;;;5081811;28;20355;-53
2023/05/29 08:23:39;;;;;;;10.90;2.70;;;13.10;99.90;;;;;;5077616;28;20244;-57
2023/05/29 08:26:07;;;;;;;13.10;3.43;;;13.20;99.90;;;;;;5083917;28;21273;-56
2023/05/29 08:28:34;;;;;;;9.37;2.60;;;13.30;99.90;;;;;;5094213;28;20190;-57
2023/05/29 08:31:01;;;;;;;10.53;2.50;;;13.40;99.90;;;;;;5085694;28;20822;-53
2023/05/29 08:33:29;;;;;;;10.73;2.47;;;13.40;99.90;;;;;;5095805;28;20224;-50
2023/05/29 08:35:58;;;;;;;10.33;2.80;;;13.50;99.90;;;;;;5093322;28;20560;-54
2023/05/29 08:38:25;;;;;;;12.87;3.23;;;13.70;99.90;;;;;;5076354;28;20287;-50
2023/05/29 08:40:57;;;;;;;9.73;2.50;;;13.80;99.90;;;;;;5083237;28;20197;-54
2023/05/29 08:43:26;;;;;;;9.47;2.80;;;13.90;99.90;;;;;;5096797;28;20221;-53
2023/05/29 08:45:55;;;;;;;7.93;2.10;;;14.00;99.90;;;;;;5094886;28;20247;-55
2023/05/29 08:48:24;;;;;;;7.87;2.57;;;14.10;99.90;;;;;;5082440;28;20213;-55
2023/05/29 08:50:54;;;;;;;8.93;2.17;;;14.20;99.90;;;;;;5089949;28;20197;-54
2023/05/29 08:53:22;;;;;;;7.83;2.60;;;14.20;99.90;;;;;;5080031;28;20202;-52
2023/05/29 08:55:52;;;;;;;6.93;2.10;;;14.40;99.90;;;;;;5070782;28;20232;-53
2023/05/29 08:58:21;;;;;;;15.80;3.17;;;14.50;99.90;;;;;;5091683;28;20664;-49
2023/05/29 09:00:50;;;;;;;7.83;2.30;;;14.60;99.90;;;;;;5078037;28;20286;-50
2023/05/29 09:03:19;;;;;;;8.30;2.73;;;14.60;99.90;;;;;;5091099;28;20202;-54
2023/05/29 09:06:09;;;;;;;10.47;3.10;;;14.70;99.90;;;;;;5083066;28;20324;-51
2023/05/29 09:08:36;;;;;;;9.40;2.50;;;14.60;99.70;;;;;;5082865;28;20200;-50
2023/05/29 09:11:04;;;;;;;9.93;2.30;;;14.70;99.60;;;;;;5077918;27;20208;-53
2023/05/29 09:13:31;;;;;;;7.50;2.50;;;14.80;99.30;;;;;;5089549;28;20205;-52
2023/05/29 09:16:01;;;;;;;9.20;2.67;;;14.80;99.10;;;;;;5085891;28;20225;-53
2023/05/29 09:18:30;;;;;;;14.90;2.83;;;14.80;98.80;;;;;;5087062;28;20198;-56
2023/05/29 09:20:57;;;;;;;11.43;3.63;;;14.90;98.90;;;;;;5085179;28;20275;-53
2023/05/29 09:23:27;;;;;;;10.60;2.53;;;15.00;98.10;;;;;;5090097;28;20229;-53
2023/05/29 09:25:54;;;;;;;6.80;2.23;;;15.10;96.80;;;;;;5081672;28;20307;-54
2023/05/29 09:28:23;;;;;;;9.07;2.43;;;15.10;96.40;;;;;;5091411;28;20201;-55
2023/05/29 09:30:50;;;;;;;6.77;2.27;;;15.20;99.90;;;;;;5077792;28;20316;-51
2023/05/29 09:33:18;;;;;;;11.97;3.60;;;15.20;97.10;;;;;;5083390;28;20582;-49
2023/05/29 09:35:47;;;;;;;14.47;2.43;;;15.10;97.10;;;;;;5069470;28;20636;-55
2023/05/29 09:38:16;;;;;;;11.20;2.83;;;15.30;97.50;;;;;;5080691;28;20202;-56
2023/05/29 09:40:45;;;;;;;10.57;2.83;;;15.40;96.90;;;;;;5074130;28;20230;-54
2023/05/29 09:43:14;;;;;;;11.90;3.30;;;15.40;97.00;;;;;;5094891;28;20714;-55
2023/05/29 09:45:42;;;;;;;9.30;3.17;;;15.60;96.60;;;;;;5080215;28;20235;-54
2023/05/29 09:48:12;;;;;;;8.67;2.20;;;15.60;96.80;;;;;;5089145;28;20197;-55
2023/05/29 09:50:44;;;;;;;8.43;2.73;;;15.70;96.30;;;;;;5080240;28;20226;-53
2023/05/29 09:53:21;;;;;;;7.50;2.30;;;15.70;95.60;;;;;;5087720;28;20276;-51
2023/05/29 09:55:50;;;;;;;8.30;2.10;;;15.80;94.60;;;;;;5078549;28;20216;-51
2023/05/29 09:58:18;;;;;;;7.53;2.30;;;15.80;94.50;;;;;;5083038;28;20206;-51
2023/05/29 10:00:45;;;;;;;9.30;2.53;;;15.80;94.30;;;;;;5088949;28;20682;-51
2023/05/29 10:03:12;;;;;;;8.90;1.97;;;15.90;93.90;;;;;;5076101;28;20217;-53
2023/05/29 10:05:41;;;;;;;5.87;2.47;;;16.00;93.90;;;;;;5077575;28;20256;-53
2023/05/29 10:08:12;;;;;;;10.63;3.07;;;16.20;93.60;;;;;;5086679;28;20283;-52
2023/05/29 10:10:42;;;;;;;6.90;1.90;;;16.20;92.60;;;;;;5093873;28;20194;-53
2023/05/29 10:13:13;;;;;;;8.23;2.10;;;16.10;92.60;;;;;;5078965;28;20258;-55
2023/05/29 10:15:42;;;;;;;7.70;2.10;;;16.10;93.00;;;;;;5089845;28;20708;-54
2023/05/29 10:18:14;;;;;;;7.67;2.03;;;16.20;92.70;;;;;;5085203;28;20202;-53
2023/05/29 10:20:45;;;;;;;5.83;1.70;;;16.20;92.00;;;;;;5095302;28;21096;-55
2023/05/29 10:23:13;;;;;;;9.80;2.80;;;16.30;91.70;;;;;;5089180;28;20277;-50
2023/05/29 10:25:42;;;;;;;6.80;2.23;;;16.20;91.40;;;;;;5095503;28;20209;-52
2023/05/29 10:28:10;;;;;;;8.00;2.70;;;16.20;91.60;;;;;;5083563;28;20682;-53
2023/05/29 10:30:42;;;;;;;6.13;2.40;;;16.30;91.40;;;;;;5085910;28;20206;-54
2023/05/29 10:33:27;;;;;;;8.93;2.37;;;16.40;91.40;;;;;;5092101;28;20292;-53
2023/05/29 10:36:02;;;;;;;6.00;2.27;;;16.50;91.10;;;;;;5077219;28;22004;-51
2023/05/29 10:38:28;;;;;;;3.43;1.87;;;16.60;91.00;;;;;;5093865;28;20539;-53
2023/05/29 10:40:56;;;;;;;8.73;2.53;;;16.70;90.40;;;;;;5095149;27;20220;-52
2023/05/29 10:43:36;;;;;;;6.80;2.20;;;16.70;90.30;;;;;;5088706;27;20396;-51
2023/05/29 10:46:03;;;;;;;5.80;2.10;;;16.70;90.00;;;;;;5088765;28;20315;-51
2023/05/29 10:48:41;;;;;;;5.10;2.10;;;16.70;89.50;;;;;;5094768;28;20205;-55
2023/05/29 10:51:25;;;;;;;6.80;1.80;;;16.70;90.10;;;;;;5104000;28;20307;-50
2023/05/29 10:53:52;;;;;;;8.03;2.30;;;16.80;90.00;;;;;;5085999;28;20205;-51
2023/05/29 10:56:24;;;;;;;10.03;2.57;;;16.90;90.10;;;;;;5080862;28;20222;-51
2023/05/29 10:58:54;;;;;;;8.27;2.80;;;16.90;88.90;;;;;;5066716;28;21093;-51
2023/05/29 11:01:24;;;;;;;7.03;2.00;;;17.00;85.90;;;;;;5100080;28;20221;-51
2023/05/29 11:03:52;;;;;;;3.50;1.60;;;17.00;87.40;;;;;;5091639;28;20284;-51
2023/05/29 11:06:23;;;;;;;6.37;2.13;;;17.10;86.50;;;;;;5085761;28;20505;-51
2023/05/29 11:08:55;;;;;;;5.17;2.07;;;17.20;99.90;;;;;;5069461;28;20868;-55
2023/05/29 11:11:33;;;;;;;5.03;2.33;;;17.30;85.30;;;;;;5081379;28;20201;-52
2023/05/29 11:14:05;;;;;;;5.70;1.97;;;17.40;99.90;;;;;;5082985;28;20937;-52
2023/05/29 11:16:38;;;;;;;7.63;1.97;;;17.50;83.40;;;;;;5080831;28;20782;-53
2023/05/29 11:19:06;;;;;;;5.07;1.80;;;17.50;83.80;;;;;;5092880;28;20297;-52
2023/05/29 11:21:46;;;;;;;7.30;2.00;;;17.70;82.10;;;;;;5090289;28;20664;-52
2023/05/29 11:24:22;;;;;;;4.80;2.00;;;17.70;80.60;;;;;;5081887;28;20196;-52
2023/05/29 11:26:50;;;;;;;8.70;2.10;;;17.70;81.10;;;;;;5077600;28;20281;-54
2023/05/29 11:29:17;;;;;;;6.20;2.20;;;17.80;82.10;;;;;;5093363;28;20262;-48
2023/05/29 11:31:45;;;;;;;6.47;1.90;;;17.80;81.90;;;;;;5082811;28;20209;-52
2023/05/29 11:34:15;;;;;;;5.83;2.47;;;17.80;81.20;;;;;;5098090;28;20208;-50
2023/05/29 11:36:45;;;;;;;6.97;2.50;;;17.80;81.00;;;;;;5092459;28;20293;-54
2023/05/29 11:39:12;;;;;;;8.90;2.10;;;17.90;81.60;;;;;;5084984;28;20620;-55
2023/05/29 11:41:39;;;;;;;4.73;2.00;;;18.00;80.20;;;;;;5083149;28;20198;-54
2023/05/29 11:44:06;;;;;;;9.20;2.27;;;18.10;78.90;;;;;;5099980;28;20190;-53
2023/05/29 11:46:34;;;;;;;5.13;1.73;;;18.00;78.00;;;;;;5076687;28;20221;-53
2023/05/29 11:49:01;;;;;;;4.40;1.80;;;17.90;79.10;;;;;;5093167;28;20282;-53
2023/05/29 11:51:29;;;;;;;6.17;2.30;;;18.00;79.80;;;;;;5091987;28;20284;-51
2023/05/29 11:53:58;;;;;;;7.63;2.17;;;18.20;78.30;;;;;;5080797;28;20261;-51
2023/05/29 11:56:26;;;;;;;7.50;1.70;;;18.20;77.50;;;;;;5093728;28;20221;-50
2023/05/29 11:58:56;;;;;;;8.07;1.90;;;18.30;76.60;;;;;;5094506;28;20193;-52
2023/05/29 12:01:24;;;;;;;4.83;1.77;;;18.30;77.10;;;;;;5078623;28;20193;-56
2023/05/29 12:03:53;;;;;;;3.00;1.87;;;18.40;76.40;;;;;;5091492;28;20197;-53
2023/05/29 12:06:39;;;;;;;4.57;1.67;;;;;;;;;;5077845;28;20232;-52
2023/05/29 12:09:07;;;;;;;5.83;2.23;;;18.70;75.30;;;;;;5092202;28;20205;-51
2023/05/29 12:11:35;;;;;;;7.77;1.83;;;18.70;74.80;;;;;;5080225;28;20209;-53
2023/05/29 12:14:02;;;;;;;7.40;2.47;;;18.70;75.70;;;;;;5103969;28;20204;-56
2023/05/29 12:16:33;;;;;;;4.67;1.80;;;18.60;75.00;;;;;;5080582;28;20686;-54
2023/05/29 12:19:00;;;;;;;5.87;1.93;;;18.70;74.50;;;;;;5099880;28;20769;-53
2023/05/29 12:21:28;;;;;;;5.80;2.43;;;18.80;73.10;;;;;;5083998;28;20205;-55
2023/05/29 12:23:55;;;;;;;6.87;2.00;;;18.80;73.50;;;;;;5092116;28;20212;-50
2023/05/29 12:26:25;;;;;;;6.73;2.00;;;18.90;73.10;;;;;;5089282;28;20218;-55
2023/05/29 12:28:53;;;;;;;5.07;1.80;;;19.00;72.30;;;;;;5085656;28;20213;-52
2023/05/29 12:31:30;;;;;;;5.13;1.60;;;19.10;71.00;;;;;;5090168;28;20209;-52
2023/05/29 12:34:01;;;;;;;6.43;2.00;;;19.20;68.60;;;;;;5064812;28;20643;-55
2023/05/29 12:36:28;;;;;;;7.80;2.17;;;19.10;69.80;;;;;;5082174;28;20271;-54
2023/05/29 12:38:57;;;;;;;3.57;1.43;;;19.30;69.50;;;;;;5100140;27;20206;-54
2023/05/29 12:41:30;;;;;;;5.97;1.80;;;19.30;66.30;;;;;;5089177;28;20200;-55
2023/05/29 12:43:58;;;;;;;6.43;2.20;;;19.40;64.20;;;;;;5088291;28;20197;-55
2023/05/29 12:46:25;;;;;;;4.30;1.90;;;19.40;66.00;;;;;;5091916;28;20274;-53
2023/05/29 12:48:54;;;;;;;5.17;1.80;;;19.60;65.40;;;;;;5066102;28;20193;-53
2023/05/29 12:51:25;;;;;;;7.30;1.80;;;19.90;64.90;;;;;;5084004;28;20272;-52
2023/05/29 12:53:54;;;;;;;7.17;2.30;;;20.10;64.50;;;;;;5090678;28;20209;-53
2023/05/29 12:56:23;;;;;;;4.17;1.90;;;20.40;66.20;;;;;;5086534;28;20699;-50